Latest Coastal Weather Observations for Coles Point

IDS60701

Issued at 8:31 pm CDT Sunday 26 February 2017 (issued every 10 minutes, with the page automatically refreshed every 10 minutes)

About coastal observations | Map of coastal stations | Coastal observations for SA | Marine services | Other Formats
Station Details ID: 018191 Name: COLES POINT Lat: -34.37 Lon: 135.37 Height: 28.0 m
Data from the previous 72 hours. | See also: Recent months at Coles Point
Date/Time
CDT
Temp
°C
Wind Pressure Rain since
9am
mm
Weather Cloud Vis
km
Sea
Height
m
Swell
Dir  Spd
kts
Gust
kts
hPa Trend Height
m
Period
s
Dir
26/08:00pm 22.3 ESE 8 11 1017.3 - 0.0 - - - - - - -
26/07:30pm 24.5 ESE 11 14 1017.0 - 0.0 - - - - - - -
26/07:00pm 26.5 SE 12 15 1016.6 - 0.0 - - - - - - -
26/06:30pm 26.6 S 9 12 1016.6 - 0.0 - - - - - - -
26/06:00pm 26.5 S 12 15 1016.5 - 0.0 - - - - - - -
26/05:30pm 25.5 S 10 15 1016.5 - 0.0 - - - - - - -
26/05:00pm 24.3 SSW 15 20 1016.8 - 0.0 - - - - - - -
26/04:30pm 25.3 SW 11 15 1016.9 - 0.0 - - - - - - -
26/04:00pm 24.9 SW 10 13 1017.0 - 0.0 - - - - - - -
26/03:30pm 25.2 SW 9 11 1017.1 - 0.0 - - - - - - -
26/03:00pm 24.2 SW 9 12 1017.6 - 0.0 - - - - - - -
26/02:30pm 25.1 WSW 10 13 1017.9 - 0.0 - - - - - - -
26/02:00pm 25.0 SW 9 12 1018.2 - 0.0 - - - - - - -
26/01:30pm 24.4 WSW 8 10 1018.5 - 0.0 - - - - - - -
26/01:00pm 24.0 WSW 7 9 1018.8 - 0.0 - - - - - - -
26/12:30pm 23.5 WSW 7 10 1019.2 - 0.0 - - - - - - -
26/12:00pm 24.7 E 7 11 1019.3 - 0.0 - - - - - - -
26/11:30am 24.2 E 7 11 1019.5 - 0.0 - - - - - - -
26/11:00am 23.4 E 10 15 1019.5 - 0.0 - - - - - - -
26/10:30am 21.8 ENE 10 16 1019.5 - 0.0 - - - - - - -
26/10:00am 20.3 E 11 15 1019.9 - 0.0 - - - - - - -
26/09:30am 19.3 E 11 15 1020.0 - 0.0 - - - - - - -
26/09:00am 16.9 SE 3 5 1020.3 - 0.0 - - - - - - -
26/08:30am 14.3 SE 3 7 1020.4 - 0.0 - - - - - - -
26/08:00am 11.8 ESE 2 3 1020.5 - 0.0 - - - - - - -
26/07:30am 11.6 ESE 6 8 1020.3 - 0.0 - - - - - - -
26/07:00am 11.9 SSE 1 3 1020.3 - 0.0 - - - - - - -
26/06:30am 10.6 CALM 0 0 1020.4 - 0.0 - - - - - - -
26/06:00am 9.6 CALM 0 0 1020.0 - 0.0 - - - - - - -
26/05:30am 10.2 SSE 4 6 1020.0 - 0.0 - - - - - - -
26/05:00am 11.7 E 4 5 1020.1 - 0.0 - - - - - - -
26/04:30am 12.4 ESE 3 5 1020.1 - 0.0 - - - - - - -
26/04:00am 12.3 ESE 4 6 1020.4 - 0.0 - - - - - - -
26/03:30am 13.3 E 3 4 1020.5 - 0.0 - - - - - - -
26/03:00am 13.6 ESE 4 5 1020.6 - 0.0 - - - - - - -
26/02:30am 14.6 ESE 4 5 1020.8 - 0.0 - - - - - - -
26/02:00am 14.6 SE 5 7 1020.9 - 0.0 - - - - - - -
26/01:30am 14.2 ESE 5 8 1021.2 - 0.0 - - - - - - -
26/01:00am 13.4 ESE 4 5 1021.4 - 0.0 - - - - - - -
26/12:30am 13.5 SE 4 5 1021.7 - 0.0 - - - - - - -
26/12:00am 13.5 SE 3 5 1022.0 - 0.0 - - - - - - -
 
Date/Time
CDT
Temp
°C
Wind Pressure Rain since
9am
mm
Weather Cloud Vis
km
Sea
Height
m
Swell
Dir  Spd
kts
Gust
kts
hPa Trend Height
m
Period
s
Dir
25/11:30pm 14.2 SSE 4 5 1022.2 - 0.0 - - - - - - -
25/11:00pm 15.0 SSE 5 6 1022.3 - 0.0 - - - - - - -
25/10:30pm 15.3 SE 6 7 1022.4 - 0.0 - - - - - - -
25/10:00pm 16.0 SE 8 10 1022.3 - 0.0 - - - - - - -
25/09:30pm 16.6 SE 8 10 1022.4 - 0.0 - - - - - - -
25/09:00pm 17.4 SE 8 11 1022.3 - 0.0 - - - - - - -
25/08:30pm 18.1 SSE 9 12 1022.3 - 0.0 - - - - - - -
25/08:00pm 19.9 ESE 11 15 1022.0 - 0.0 - - - - - - -
25/07:30pm 21.1 ESE 12 16 1021.8 - 0.0 - - - - - - -
25/07:00pm 22.1 ESE 12 16 1021.9 - 0.0 - - - - - - -
25/06:30pm 23.1 ESE 13 16 1021.8 - 0.0 - - - - - - -
25/06:00pm 23.4 ESE 13 19 1021.8 - 0.0 - - - - - - -
25/05:30pm 24.0 ESE 13 18 1021.7 - 0.0 - - - - - - -
25/05:00pm 24.6 ESE 13 20 1021.7 - 0.0 - - - - - - -
25/04:30pm 24.7 ESE 12 18 1022.0 - 0.0 - - - - - - -
25/04:00pm 24.7 ESE 12 18 1022.3 - 0.0 - - - - - - -
25/03:30pm 24.9 SE 13 19 1022.8 - 0.0 - - - - - - -
25/03:00pm 24.7 ESE 13 18 1023.2 - 0.0 - - - - - - -
25/02:30pm 24.4 ESE 11 15 1023.7 - 0.0 - - - - - - -
25/02:00pm 24.1 ESE 11 16 1023.9 - 0.0 - - - - - - -
25/01:30pm 23.5 SE 12 18 1024.3 - 0.0 - - - - - - -
25/01:00pm 24.3 ESE 11 17 1024.5 - 0.0 - - - - - - -
25/12:30pm 22.8 ESE 11 16 1025.1 - 0.0 - - - - - - -
25/12:00pm 22.9 ESE 10 15 1025.4 - 0.0 - - - - - - -
25/11:30am 21.8 ESE 13 18 1025.5 - 0.0 - - - - - - -
25/11:00am 21.4 ESE 12 18 1025.9 - 0.0 - - - - - - -
25/10:30am 20.2 ESE 13 19 1026.1 - 0.0 - - - - - - -
25/10:00am 20.3 ESE 12 19 1026.1 - 0.0 - - - - - - -
25/09:30am 18.9 SE 8 11 1026.3 - 0.0 - - - - - - -
25/09:00am 18.3 SE 10 13 1026.3 - 0.0 - - - - - - -
25/08:30am 17.7 SE 9 14 1026.0 - 0.0 - - - - - - -
25/08:00am 17.2 SE 8 11 1025.7 - 0.0 - - - - - - -
25/07:30am 16.9 SE 7 10 1025.7 - 0.0 - - - - - - -
25/07:00am 16.5 SE 8 11 1025.5 - 0.0 - - - - - - -
25/06:30am 16.4 SSE 8 11 1025.6 - 0.0 - - - - - - -
25/06:00am 15.9 SSE 7 9 1025.4 - 0.0 - - - - - - -
25/05:30am 15.4 SSE 8 11 1025.4 - 0.0 - - - - - - -
25/05:00am 14.7 SSE 6 8 1025.3 - 0.0 - - - - - - -
25/04:30am 14.2 SSE 8 10 1025.0 - 0.0 - - - - - - -
25/04:00am 13.9 SSE 7 8 1025.1 - 0.0 - - - - - - -
25/03:30am 13.5 SSE 7 8 1025.1 - 0.0 - - - - - - -
25/03:00am 13.8 SSE 6 8 1025.3 - 0.0 - - - - - - -
25/02:30am 14.7 SE 7 9 1025.6 - 0.0 - - - - - - -
25/02:00am 15.3 SE 8 10 1025.8 - 0.0 - - - - - - -
25/01:30am 16.1 SE 9 14 1026.1 - 0.0 - - - - - - -
25/01:00am 17.1 SE 9 12 1026.4 - 0.0 - - - - - - -
25/12:30am 16.5 SSE 6 9 1026.6 - 0.0 - - - - - - -
25/12:00am 13.8 SE 6 6 1026.8 - 0.0 - - - - - - -
 
Date/Time
CDT
Temp
°C
Wind Pressure Rain since
9am
mm
Weather Cloud Vis
km
Sea
Height
m
Swell
Dir  Spd
kts
Gust
kts
hPa Trend Height
m
Period
s
Dir
24/11:30pm 14.6 SE 5 6 1027.1 - 0.0 - - - - - - -
24/11:00pm 14.1 SE 5 5 1027.3 - 0.0 - - - - - - -
24/10:30pm 14.5 SE 4 6 1027.2 - 0.0 - - - - - - -
24/10:00pm 15.5 SE 6 8 1027.1 - 0.0 - - - - - - -
24/09:30pm 16.6 SSE 8 11 1027.2 - 0.0 - - - - - - -
24/09:00pm 17.2 SSE 10 13 1027.1 - 0.0 - - - - - - -
24/08:30pm 18.2 SSE 10 14 1026.9 - 0.0 - - - - - - -
24/08:00pm 18.7 SE 13 17 1026.6 - 0.0 - - - - - - -
24/07:30pm 19.2 SSE 13 18 1026.4 - 0.0 - - - - - - -
24/07:00pm 19.4 SSE 13 18 1026.4 - 0.0 - - - - - - -
24/06:30pm 19.9 SSE 14 19 1026.2 - 0.0 - - - - - - -
24/06:00pm 20.0 SSE 14 18 1026.2 - 0.0 - - - - - - -
24/05:30pm 20.9 S 14 19 1026.0 - 0.0 - - - - - - -
24/05:00pm 21.9 SSE 15 23 1025.8 - 0.0 - - - - - - -
24/04:30pm 21.1 S 19 25 1025.7 - 0.0 - - - - - - -
24/04:00pm 22.1 S 16 23 1025.7 - 0.0 - - - - - - -
24/03:30pm 22.4 SSW 18 23 1025.9 - 0.0 - - - - - - -
24/03:00pm 22.4 SSW 18 23 1026.2 - 0.0 - - - - - - -
24/02:30pm 22.0 SSW 17 23 1026.4 - 0.0 - - - - - - -
24/02:00pm 22.6 SSW 18 22 1026.6 - 0.0 - - - - - - -
24/01:30pm 21.9 SSW 16 22 1026.9 - 0.0 - - - - - - -
24/01:00pm 21.4 SSW 16 22 1027.0 - 0.0 - - - - - - -
24/12:30pm 21.0 SSE 10 15 1027.4 - 0.0 - - - - - - -
24/12:00pm 20.6 S 12 18 1027.6 - 0.0 - - - - - - -
24/11:30am 20.9 SSE 10 17 1027.8 - 0.0 - - - - - - -
24/11:00am 20.1 SE 9 13 1027.9 - 0.0 - - - - - - -
24/10:30am 19.5 SE 10 14 1027.8 - 0.0 - - - - - - -
24/10:00am 18.9 SSE 10 14 1027.8 - 0.0 - - - - - - -
24/09:30am 18.4 SSE 10 14 1027.5 - 0.0 - - - - - - -
24/09:00am 17.9 SE 7 11 1027.5 - 0.0 - - - - - - -
24/08:30am 17.4 SE 6 9 1027.2 - 0.0 - - - - - - -
24/08:00am 16.7 SE 5 6 1027.0 - 0.0 - - - - - - -
24/07:30am 16.4 SSE 4 7 1026.8 - 0.0 - - - - - - -
24/07:00am 16.1 SE 5 7 1026.3 - 0.0 - - - - - - -
24/06:30am 15.4 SSE 2 3 1025.9 - 0.0 - - - - - - -
24/06:00am 15.3 SSE 3 4 1025.8 - 0.0 - - - - - - -
24/05:30am 15.0 ESE 4 5 1025.6 - 0.0 - - - - - - -
24/05:00am 13.8 E 2 3 1025.4 - 0.0 - - - - - - -
24/04:30am 13.8 ENE 5 6 1025.2 - 0.0 - - - - - - -
24/04:00am 13.7 ENE 4 4 1025.3 - 0.0 - - - - - - -
24/03:30am 13.0 E 4 5 1025.2 - 0.0 - - - - - - -
24/03:00am 12.4 ENE 4 4 1025.1 - 0.0 - - - - - - -
24/02:30am 12.5 ESE 4 4 1025.2 - 0.0 - - - - - - -
24/02:00am 12.2 SE 5 6 1025.3 - 0.0 - - - - - - -
24/01:30am 12.4 SE 4 5 1025.4 - 0.0 - - - - - - -
24/01:00am 13.3 SE 4 4 1025.5 - 0.0 - - - - - - -
24/12:30am 13.7 SE 4 5 1025.6 - 0.0 - - - - - - -
24/12:00am 14.1 SSE 5 6 1025.6 - 0.0 - - - - - - -
 
Date/Time
CDT
Temp
°C
Wind Pressure Rain since
9am
mm
Weather Cloud Vis
km
Sea
Height
m
Swell
Dir  Spd
kts
Gust
kts
hPa Trend Height
m
Period
s
Dir
23/11:30pm 14.8 SSE 4 5 1025.5 - 0.0 - - - - - - -
23/11:00pm 14.6 SSE 4 5 1025.4 - 0.0 - - - - - - -
23/10:30pm 14.6 SSE 4 4 1025.2 - 0.0 - - - - - - -
23/10:00pm 15.6 SSE 5 6 1025.0 - 0.0 - - - - - - -
23/09:30pm 16.8 S 6 8 1024.7 - 0.0 - - - - - - -
23/09:00pm 17.0 S 7 8 1024.3 - 0.0 - - - - - - -

Other Formats:

Comma delimited format used in spreadsheet applications
http://www.bom.gov.au/fwo/IDS60701/IDS60701.94658.axf

JavaScript Object Notation format (JSON) in row-major order
http://www.bom.gov.au/fwo/IDS60701/IDS60701.94658.json